sensor_id;sensor_type;location;lat;lon;timestamp;P1;durP1;ratioP1;P2;durP2;ratioP2
53939;SDS011;39850;43.324;21.916;2022-09-30T00:01:39;14.0;;;12.0;;
53939;SDS011;39850;43.324;21.916;2022-09-30T00:06:16;14.0;;;12.0;;
53939;SDS011;39850;43.324;21.916;2022-09-30T00:11:13;12.0;;;10.0;;
53939;SDS011;39850;43.324;21.916;2022-09-30T00:15:52;12.0;;;10.0;;
53939;SDS011;39850;43.324;21.916;2022-09-30T00:20:28;14.0;;;12.0;;
53939;SDS011;39850;43.324;21.916;2022-09-30T00:25:07;14.0;;;12.0;;
53939;SDS011;39850;43.324;21.916;2022-09-30T00:29:44;12.0;;;10.0;;
53939;SDS011;39850;43.324;21.916;2022-09-30T00:34:21;12.0;;;10.0;;
53939;SDS011;39850;43.324;21.916;2022-09-30T00:38:58;14.0;;;12.0;;
53939;SDS011;39850;43.324;21.916;2022-09-30T00:43:47;14.0;;;12.0;;
53939;SDS011;39850;43.324;21.916;2022-09-30T01:34:36;15.0;;;14.0;;
53939;SDS011;39850;43.324;21.916;2022-09-30T01:40:05;12.0;;;11.0;;
53939;SDS011;39850;43.324;21.916;2022-09-30T01:45:17;12.0;;;11.0;;
53939;SDS011;39850;43.324;21.916;2022-09-30T01:50:28;12.0;;;11.0;;
53939;SDS011;39850;43.324;21.916;2022-09-30T01:55:35;12.0;;;11.0;;
53939;SDS011;39850;43.324;21.916;2022-09-30T02:00:20;10.0;;;8.0;;
53939;SDS011;39850;43.324;21.916;2022-09-30T02:05:15;10.0;;;8.0;;
53939;SDS011;39850;43.324;21.916;2022-09-30T02:49:38;10.0;;;8.0;;
53939;SDS011;39850;43.324;21.916;2022-09-30T02:55:07;10.0;;;8.0;;
53939;SDS011;39850;43.324;21.916;2022-09-30T02:59:53;10.0;;;8.0;;
53939;SDS011;39850;43.324;21.916;2022-09-30T03:04:44;10.0;;;8.0;;
53939;SDS011;39850;43.324;21.916;2022-09-30T03:09:27;10.0;;;8.0;;
53939;SDS011;39850;43.324;21.916;2022-09-30T03:15:24;10.0;;;8.0;;
53939;SDS011;39850;43.324;21.916;2022-09-30T03:21:06;10.0;;;8.0;;
53939;SDS011;39850;43.324;21.916;2022-09-30T03:26:36;10.0;;;8.0;;
53939;SDS011;39850;43.324;21.916;2022-09-30T04:01:28;10.0;;;9.0;;
53939;SDS011;39850;43.324;21.916;2022-09-30T04:06:14;10.0;;;9.0;;
53939;SDS011;39850;43.324;21.916;2022-09-30T04:10:51;10.0;;;9.0;;
53939;SDS011;39850;43.324;21.916;2022-09-30T04:15:28;10.0;;;9.0;;
53939;SDS011;39850;43.324;21.916;2022-09-30T04:20:07;11.0;;;9.0;;
53939;SDS011;39850;43.324;21.916;2022-09-30T04:24:44;11.0;;;9.0;;
53939;SDS011;39850;43.324;21.916;2022-09-30T04:29:21;11.0;;;9.0;;
53939;SDS011;39850;43.324;21.916;2022-09-30T04:33:58;11.0;;;9.0;;
53939;SDS011;39850;43.324;21.916;2022-09-30T04:38:35;11.0;;;9.0;;
53939;SDS011;39850;43.324;21.916;2022-09-30T04:43:11;11.0;;;9.0;;
53939;SDS011;39850;43.324;21.916;2022-09-30T04:47:48;11.0;;;9.0;;
53939;SDS011;39850;43.324;21.916;2022-09-30T05:20:12;13.0;;;9.0;;
53939;SDS011;39850;43.324;21.916;2022-09-30T05:24:50;13.0;;;9.0;;
53939;SDS011;39850;43.324;21.916;2022-09-30T05:29:27;12.0;;;9.0;;
53939;SDS011;39850;43.324;21.916;2022-09-30T05:34:03;12.0;;;9.0;;
53939;SDS011;39850;43.324;21.916;2022-09-30T05:38:41;12.0;;;9.0;;
53939;SDS011;39850;43.324;21.916;2022-09-30T05:43:19;11.0;;;9.0;;
53939;SDS011;39850;43.324;21.916;2022-09-30T05:47:59;11.0;;;9.0;;
53939;SDS011;39850;43.324;21.916;2022-09-30T05:52:36;11.0;;;9.0;;
53939;SDS011;39850;43.324;21.916;2022-09-30T05:57:12;11.0;;;9.0;;
53939;SDS011;39850;43.324;21.916;2022-09-30T06:01:49;11.0;;;9.0;;
53939;SDS011;39850;43.324;21.916;2022-09-30T06:06:26;11.0;;;9.0;;
53939;SDS011;39850;43.324;21.916;2022-09-30T06:43:41;14.0;;;10.0;;
53939;SDS011;39850;43.324;21.916;2022-09-30T06:48:19;14.0;;;10.0;;
53939;SDS011;39850;43.324;21.916;2022-09-30T06:53:02;14.0;;;10.0;;
53939;SDS011;39850;43.324;21.916;2022-09-30T06:57:41;14.0;;;10.0;;
53939;SDS011;39850;43.324;21.916;2022-09-30T07:02:19;14.0;;;10.0;;
53939;SDS011;39850;43.324;21.916;2022-09-30T07:06:57;14.0;;;10.0;;
53939;SDS011;39850;43.324;21.916;2022-09-30T07:11:37;14.0;;;10.0;;
53939;SDS011;39850;43.324;21.916;2022-09-30T07:16:19;14.0;;;10.0;;
53939;SDS011;39850;43.324;21.916;2022-09-30T07:20:56;13.0;;;10.0;;
53939;SDS011;39850;43.324;21.916;2022-09-30T07:25:33;13.0;;;10.0;;
53939;SDS011;39850;43.324;21.916;2022-09-30T08:02:35;15.0;;;11.0;;
53939;SDS011;39850;43.324;21.916;2022-09-30T08:07:17;15.0;;;11.0;;
53939;SDS011;39850;43.324;21.916;2022-09-30T08:11:56;16.0;;;11.0;;
53939;SDS011;39850;43.324;21.916;2022-09-30T08:16:33;16.0;;;11.0;;
53939;SDS011;39850;43.324;21.916;2022-09-30T08:21:10;15.0;;;11.0;;
53939;SDS011;39850;43.324;21.916;2022-09-30T08:25:48;15.0;;;11.0;;
53939;SDS011;39850;43.324;21.916;2022-09-30T08:30:25;16.0;;;11.0;;
53939;SDS011;39850;43.324;21.916;2022-09-30T08:35:02;16.0;;;11.0;;
53939;SDS011;39850;43.324;21.916;2022-09-30T08:39:42;15.0;;;11.0;;
53939;SDS011;39850;43.324;21.916;2022-09-30T08:44:46;15.0;;;11.0;;
53939;SDS011;39850;43.324;21.916;2022-09-30T09:24:59;11.0;;;6.0;;
53939;SDS011;39850;43.324;21.916;2022-09-30T09:30:15;10.0;;;6.0;;
53939;SDS011;39850;43.324;21.916;2022-09-30T09:35:26;10.0;;;6.0;;
53939;SDS011;39850;43.324;21.916;2022-09-30T09:40:43;10.0;;;6.0;;
53939;SDS011;39850;43.324;21.916;2022-09-30T09:46:04;10.0;;;6.0;;
53939;SDS011;39850;43.324;21.916;2022-09-30T09:51:31;9.0;;;7.0;;
53939;SDS011;39850;43.324;21.916;2022-09-30T09:56:25;9.0;;;7.0;;
53939;SDS011;39850;43.324;21.916;2022-09-30T10:01:10;10.0;;;8.0;;
53939;SDS011;39850;43.324;21.916;2022-09-30T10:06:08;10.0;;;8.0;;
53939;SDS011;39850;43.324;21.916;2022-09-30T10:44:23;8.0;;;6.0;;
53939;SDS011;39850;43.324;21.916;2022-09-30T10:49:25;8.0;;;6.0;;
53939;SDS011;39850;43.324;21.916;2022-09-30T10:54:48;8.0;;;6.0;;
53939;SDS011;39850;43.324;21.916;2022-09-30T10:59:42;8.0;;;6.0;;
53939;SDS011;39850;43.324;21.916;2022-09-30T11:04:50;8.0;;;6.0;;
53939;SDS011;39850;43.324;21.916;2022-09-30T11:10:06;8.0;;;6.0;;
53939;SDS011;39850;43.324;21.916;2022-09-30T11:15:23;8.0;;;6.0;;
53939;SDS011;39850;43.324;21.916;2022-09-30T11:20:31;8.0;;;7.0;;
53939;SDS011;39850;43.324;21.916;2022-09-30T11:25:42;8.0;;;7.0;;
53939;SDS011;39850;43.324;21.916;2022-09-30T12:02:41;8.0;;;6.0;;
53939;SDS011;39850;43.324;21.916;2022-09-30T12:07:49;8.0;;;6.0;;
53939;SDS011;39850;43.324;21.916;2022-09-30T12:12:31;8.0;;;6.0;;
53939;SDS011;39850;43.324;21.916;2022-09-30T12:17:42;8.0;;;6.0;;
53939;SDS011;39850;43.324;21.916;2022-09-30T12:22:44;8.0;;;6.0;;
53939;SDS011;39850;43.324;21.916;2022-09-30T12:27:50;8.0;;;6.0;;
53939;SDS011;39850;43.324;21.916;2022-09-30T12:34:42;8.0;;;6.0;;
53939;SDS011;39850;43.324;21.916;2022-09-30T12:41:17;9.0;;;6.0;;
53939;SDS011;39850;43.324;21.916;2022-09-30T12:46:46;9.0;;;6.0;;
53939;SDS011;39850;43.324;21.916;2022-09-30T13:25:54;8.0;;;6.0;;
53939;SDS011;39850;43.324;21.916;2022-09-30T13:30:40;8.0;;;6.0;;
53939;SDS011;39850;43.324;21.916;2022-09-30T13:35:46;8.0;;;6.0;;
53939;SDS011;39850;43.324;21.916;2022-09-30T13:40:27;8.0;;;6.0;;
53939;SDS011;39850;43.324;21.916;2022-09-30T13:45:34;8.0;;;6.0;;
53939;SDS011;39850;43.324;21.916;2022-09-30T13:50:44;8.0;;;6.0;;
53939;SDS011;39850;43.324;21.916;2022-09-30T13:55:42;8.0;;;6.0;;
53939;SDS011;39850;43.324;21.916;2022-09-30T14:00:52;8.0;;;6.0;;
53939;SDS011;39850;43.324;21.916;2022-09-30T14:06:12;8.0;;;6.0;;
53939;SDS011;39850;43.324;21.916;2022-09-30T14:42:40;9.0;;;7.0;;
53939;SDS011;39850;43.324;21.916;2022-09-30T14:47:19;9.0;;;7.0;;
53939;SDS011;39850;43.324;21.916;2022-09-30T14:51:56;10.0;;;8.0;;
53939;SDS011;39850;43.324;21.916;2022-09-30T14:56:36;10.0;;;8.0;;
53939;SDS011;39850;43.324;21.916;2022-09-30T15:01:19;9.0;;;7.0;;
53939;SDS011;39850;43.324;21.916;2022-09-30T15:05:58;9.0;;;7.0;;
53939;SDS011;39850;43.324;21.916;2022-09-30T15:10:35;9.0;;;7.0;;
53939;SDS011;39850;43.324;21.916;2022-09-30T15:15:37;10.0;;;8.0;;
53939;SDS011;39850;43.324;21.916;2022-09-30T15:20:35;10.0;;;8.0;;
53939;SDS011;39850;43.324;21.916;2022-09-30T15:25:12;8.0;;;6.0;;
53939;SDS011;39850;43.324;21.916;2022-09-30T15:29:56;8.0;;;6.0;;
53939;SDS011;39850;43.324;21.916;2022-09-30T16:03:59;10.0;;;8.0;;
53939;SDS011;39850;43.324;21.916;2022-09-30T16:08:51;10.0;;;8.0;;
53939;SDS011;39850;43.324;21.916;2022-09-30T16:13:43;10.0;;;8.0;;
53939;SDS011;39850;43.324;21.916;2022-09-30T16:18:30;10.0;;;8.0;;
53939;SDS011;39850;43.324;21.916;2022-09-30T16:23:36;10.0;;;7.0;;
53939;SDS011;39850;43.324;21.916;2022-09-30T16:28:15;10.0;;;7.0;;
53939;SDS011;39850;43.324;21.916;2022-09-30T16:33:04;10.0;;;7.0;;
53939;SDS011;39850;43.324;21.916;2022-09-30T16:37:42;10.0;;;7.0;;
53939;SDS011;39850;43.324;21.916;2022-09-30T16:42:19;10.0;;;7.0;;
53939;SDS011;39850;43.324;21.916;2022-09-30T16:46:56;10.0;;;7.0;;
53939;SDS011;39850;43.324;21.916;2022-09-30T17:24:21;11.0;;;8.0;;
53939;SDS011;39850;43.324;21.916;2022-09-30T17:28:59;11.0;;;8.0;;
53939;SDS011;39850;43.324;21.916;2022-09-30T17:33:41;12.0;;;8.0;;
53939;SDS011;39850;43.324;21.916;2022-09-30T17:38:18;12.0;;;8.0;;
53939;SDS011;39850;43.324;21.916;2022-09-30T17:42:55;11.0;;;9.0;;
53939;SDS011;39850;43.324;21.916;2022-09-30T17:47:32;11.0;;;9.0;;
53939;SDS011;39850;43.324;21.916;2022-09-30T17:52:09;12.0;;;9.0;;
53939;SDS011;39850;43.324;21.916;2022-09-30T17:56:46;12.0;;;9.0;;
53939;SDS011;39850;43.324;21.916;2022-09-30T18:01:23;12.0;;;9.0;;
53939;SDS011;39850;43.324;21.916;2022-09-30T18:06:00;11.0;;;9.0;;
53939;SDS011;39850;43.324;21.916;2022-09-30T18:10:37;11.0;;;9.0;;
53939;SDS011;39850;43.324;21.916;2022-09-30T18:43:02;12.0;;;9.0;;
53939;SDS011;39850;43.324;21.916;2022-09-30T18:47:42;12.0;;;9.0;;
53939;SDS011;39850;43.324;21.916;2022-09-30T18:52:18;12.0;;;9.0;;
53939;SDS011;39850;43.324;21.916;2022-09-30T18:56:55;12.0;;;9.0;;
53939;SDS011;39850;43.324;21.916;2022-09-30T19:01:33;12.0;;;9.0;;
53939;SDS011;39850;43.324;21.916;2022-09-30T19:06:10;12.0;;;10.0;;
53939;SDS011;39850;43.324;21.916;2022-09-30T19:10:47;12.0;;;10.0;;
53939;SDS011;39850;43.324;21.916;2022-09-30T19:15:23;13.0;;;10.0;;
53939;SDS011;39850;43.324;21.916;2022-09-30T19:20:06;13.0;;;10.0;;
53939;SDS011;39850;43.324;21.916;2022-09-30T19:24:43;13.0;;;10.0;;
53939;SDS011;39850;43.324;21.916;2022-09-30T19:29:20;13.0;;;10.0;;
53939;SDS011;39850;43.324;21.916;2022-09-30T20:06:22;21.0;;;19.0;;
53939;SDS011;39850;43.324;21.916;2022-09-30T20:11:11;21.0;;;19.0;;
53939;SDS011;39850;43.324;21.916;2022-09-30T20:15:49;16.0;;;14.0;;
53939;SDS011;39850;43.324;21.916;2022-09-30T20:20:26;16.0;;;14.0;;
53939;SDS011;39850;43.324;21.916;2022-09-30T20:25:06;13.0;;;10.0;;
53939;SDS011;39850;43.324;21.916;2022-09-30T20:29:43;13.0;;;10.0;;
53939;SDS011;39850;43.324;21.916;2022-09-30T20:34:20;12.0;;;10.0;;
53939;SDS011;39850;43.324;21.916;2022-09-30T20:39:03;12.0;;;10.0;;
53939;SDS011;39850;43.324;21.916;2022-09-30T20:43:39;13.0;;;10.0;;
53939;SDS011;39850;43.324;21.916;2022-09-30T20:48:16;13.0;;;10.0;;
53939;SDS011;39850;43.324;21.916;2022-09-30T21:25:20;11.0;;;9.0;;
53939;SDS011;39850;43.324;21.916;2022-09-30T21:29:58;11.0;;;9.0;;
53939;SDS011;39850;43.324;21.916;2022-09-30T21:34:36;12.0;;;9.0;;
53939;SDS011;39850;43.324;21.916;2022-09-30T21:39:14;12.0;;;9.0;;
53939;SDS011;39850;43.324;21.916;2022-09-30T21:43:52;12.0;;;9.0;;
53939;SDS011;39850;43.324;21.916;2022-09-30T21:48:29;12.0;;;9.0;;
53939;SDS011;39850;43.324;21.916;2022-09-30T21:53:07;12.0;;;9.0;;
53939;SDS011;39850;43.324;21.916;2022-09-30T21:57:43;12.0;;;9.0;;
53939;SDS011;39850;43.324;21.916;2022-09-30T22:02:20;12.0;;;9.0;;
53939;SDS011;39850;43.324;21.916;2022-09-30T22:06:57;12.0;;;9.0;;
53939;SDS011;39850;43.324;21.916;2022-09-30T22:11:34;12.0;;;9.0;;
53939;SDS011;39850;43.324;21.916;2022-09-30T22:44:01;10.0;;;9.0;;
53939;SDS011;39850;43.324;21.916;2022-09-30T22:48:38;10.0;;;9.0;;
53939;SDS011;39850;43.324;21.916;2022-09-30T22:53:15;10.0;;;8.0;;
53939;SDS011;39850;43.324;21.916;2022-09-30T22:57:51;10.0;;;8.0;;
53939;SDS011;39850;43.324;21.916;2022-09-30T23:02:28;10.0;;;8.0;;
53939;SDS011;39850;43.324;21.916;2022-09-30T23:07:05;10.0;;;8.0;;
53939;SDS011;39850;43.324;21.916;2022-09-30T23:11:44;10.0;;;8.0;;
53939;SDS011;39850;43.324;21.916;2022-09-30T23:16:21;10.0;;;8.0;;
53939;SDS011;39850;43.324;21.916;2022-09-30T23:21:04;10.0;;;8.0;;
53939;SDS011;39850;43.324;21.916;2022-09-30T23:25:42;11.0;;;8.0;;
53939;SDS011;39850;43.324;21.916;2022-09-30T23:30:18;11.0;;;8.0;;
